createdAt,value
2019-05-29T00:00:36.676Z,10.00
2019-05-29T00:03:08.271Z,10.00
2019-05-29T00:05:39.358Z,10.00
2019-05-29T00:08:10.432Z,10.00
2019-05-29T00:10:41.714Z,10.00
2019-05-29T00:13:12.512Z,10.00
2019-05-29T00:15:43.017Z,10.00
2019-05-29T00:18:14.585Z,10.00
2019-05-29T00:20:45.306Z,9.90
2019-05-29T00:23:17.037Z,9.90
2019-05-29T00:25:48.195Z,9.80
2019-05-29T00:28:19.066Z,9.70
2019-05-29T00:30:49.982Z,9.60
2019-05-29T00:33:20.464Z,9.50
2019-05-29T00:35:51.236Z,9.50
2019-05-29T00:38:22.061Z,9.50
2019-05-29T00:40:52.713Z,9.50
2019-05-29T00:43:24.038Z,9.40
2019-05-29T00:45:54.895Z,9.40
2019-05-29T00:48:25.723Z,9.40
2019-05-29T00:50:56.337Z,9.30
2019-05-29T00:53:27.089Z,9.30
2019-05-29T00:55:57.765Z,9.30
2019-05-29T00:58:28.541Z,9.20
2019-05-29T01:00:59.118Z,9.10
2019-05-29T01:03:29.913Z,9.10
2019-05-29T01:06:00.501Z,9.00
2019-05-29T01:08:30.977Z,9.00
2019-05-29T01:11:01.845Z,9.00
2019-05-29T01:13:32.361Z,8.90
2019-05-29T01:16:02.879Z,8.90
2019-05-29T01:18:33.657Z,8.90
2019-05-29T01:21:04.557Z,8.90
2019-05-29T01:23:35.294Z,8.90
2019-05-29T01:26:06.171Z,8.80
2019-05-29T01:28:36.827Z,8.80
2019-05-29T01:31:07.518Z,8.80
2019-05-29T01:33:38.129Z,8.70
2019-05-29T01:36:08.865Z,8.70
2019-05-29T01:38:39.702Z,8.70
2019-05-29T01:41:10.350Z,8.70
2019-05-29T01:43:41.069Z,8.70
2019-05-29T01:46:11.706Z,8.60
2019-05-29T01:48:42.733Z,8.50
2019-05-29T01:51:13.369Z,8.50
2019-05-29T01:53:44.121Z,8.50
2019-05-29T01:56:15.532Z,8.50
2019-05-29T01:58:46.397Z,8.50
2019-05-29T02:01:18.099Z,8.50
2019-05-29T02:03:48.774Z,8.40
2019-05-29T02:06:19.967Z,8.40
2019-05-29T02:08:50.461Z,8.40
2019-05-29T02:11:21.348Z,8.30
2019-05-29T02:13:51.802Z,8.20
2019-05-29T02:16:22.677Z,8.20
2019-05-29T02:18:54.626Z,8.20
2019-05-29T02:21:25.497Z,8.20
2019-05-29T02:23:56.330Z,8.10
2019-05-29T02:26:28.123Z,8.10
2019-05-29T02:28:58.905Z,8.00
2019-05-29T02:31:29.517Z,8.00
2019-05-29T02:34:00.278Z,8.10
2019-05-29T02:36:31.609Z,8.00
2019-05-29T02:39:02.065Z,8.00
2019-05-29T02:41:36.249Z,8.10
2019-05-29T02:44:06.704Z,8.10
2019-05-29T02:46:37.586Z,8.10
2019-05-29T02:49:09.071Z,8.10
2019-05-29T02:51:39.838Z,8.20
2019-05-29T02:54:10.459Z,8.20
2019-05-29T02:56:42.617Z,8.20
2019-05-29T02:59:13.577Z,8.20
2019-05-29T03:01:44.195Z,8.10
2019-05-29T03:04:14.923Z,8.20
2019-05-29T03:06:45.787Z,8.20
2019-05-29T03:09:16.624Z,8.20
2019-05-29T03:11:47.527Z,8.20
2019-05-29T03:14:19.276Z,8.20
2019-05-29T03:16:49.824Z,8.20
2019-05-29T03:19:20.385Z,8.20
2019-05-29T03:21:51.104Z,8.20
2019-05-29T03:24:21.928Z,8.30
2019-05-29T03:26:52.609Z,8.30
2019-05-29T03:29:23.068Z,8.30
2019-05-29T03:31:53.606Z,8.30
2019-05-29T03:34:27.351Z,8.30
2019-05-29T03:36:58.071Z,8.30
2019-05-29T03:39:30.310Z,8.40
2019-05-29T03:42:01.572Z,8.40
2019-05-29T03:44:33.283Z,8.40
2019-05-29T03:47:04.479Z,8.40
2019-05-29T03:49:35.353Z,8.40
2019-05-29T03:52:07.505Z,8.40
2019-05-29T03:54:38.742Z,8.40
2019-05-29T03:57:10.272Z,8.50
2019-05-29T03:59:41.186Z,8.50
2019-05-29T04:02:12.077Z,8.50
2019-05-29T04:04:43.004Z,8.50
2019-05-29T04:07:13.849Z,8.50
2019-05-29T04:09:44.663Z,8.60
2019-05-29T04:12:18.928Z,8.60
2019-05-29T04:14:48.331Z,8.60
2019-05-29T04:17:20.392Z,8.60
2019-05-29T04:19:51.384Z,8.60
2019-05-29T04:22:28.321Z,8.60
2019-05-29T04:25:00.953Z,8.60
2019-05-29T04:27:35.955Z,8.60
2019-05-29T04:30:08.998Z,8.60
2019-05-29T04:32:40.064Z,8.70
2019-05-29T04:35:10.845Z,8.70
2019-05-29T04:37:41.733Z,8.70
2019-05-29T04:40:12.616Z,8.70
2019-05-29T04:42:43.181Z,8.80
2019-05-29T04:45:14.107Z,8.80
2019-05-29T04:47:45.194Z,8.80
2019-05-29T04:50:15.773Z,8.80
2019-05-29T04:52:46.450Z,8.80
2019-05-29T04:55:17.064Z,8.80
2019-05-29T04:57:50.794Z,8.90
2019-05-29T05:00:19.941Z,8.90
2019-05-29T05:02:50.718Z,8.90
2019-05-29T05:05:22.560Z,8.90
2019-05-29T05:07:53.302Z,8.90
2019-05-29T05:10:41.076Z,9.00
2019-05-29T05:13:13.151Z,9.00
2019-05-29T05:15:46.770Z,9.10
2019-05-29T05:18:17.327Z,9.10
2019-05-29T05:20:48.063Z,9.10
2019-05-29T05:23:18.967Z,9.20
2019-05-29T05:25:49.733Z,9.20
2019-05-29T05:28:20.489Z,9.30
2019-05-29T05:30:51.401Z,9.40
2019-05-29T05:33:22.222Z,9.30
2019-05-29T05:35:52.913Z,9.40
2019-05-29T05:38:23.621Z,9.50
2019-05-29T05:40:54.470Z,9.60
2019-05-29T05:43:25.357Z,9.70
2019-05-29T05:45:56.133Z,9.90
2019-05-29T05:48:26.757Z,10.10
2019-05-29T05:50:57.493Z,10.20
2019-05-29T05:53:28.154Z,10.30
2019-05-29T05:55:58.898Z,10.40
2019-05-29T05:58:29.727Z,10.40
2019-05-29T06:01:00.573Z,10.50
2019-05-29T06:03:31.792Z,10.40
2019-05-29T06:06:04.122Z,10.50
2019-05-29T06:08:36.085Z,10.60
2019-05-29T06:11:07.077Z,10.70
2019-05-29T06:13:38.386Z,10.70
2019-05-29T06:16:09.029Z,10.70
2019-05-29T06:18:41.361Z,10.80
2019-05-29T06:21:11.920Z,10.90
2019-05-29T06:23:43.420Z,10.90
2019-05-29T06:26:14.753Z,11.00
2019-05-29T06:28:46.581Z,11.10
2019-05-29T06:31:17.067Z,11.10
2019-05-29T06:33:47.665Z,11.20
2019-05-29T06:36:18.286Z,11.20
2019-05-29T06:38:49.131Z,11.30
2019-05-29T06:41:19.765Z,11.30
2019-05-29T06:43:50.654Z,11.40
2019-05-29T06:46:21.292Z,11.50
2019-05-29T06:48:59.260Z,11.60
2019-05-29T06:51:24.654Z,11.60
2019-05-29T06:53:55.538Z,11.70
2019-05-29T06:56:26.158Z,11.60
2019-05-29T06:58:57.217Z,11.60
2019-05-29T07:01:28.015Z,11.50
2019-05-29T07:04:11.191Z,11.50
2019-05-29T07:06:31.121Z,11.70
2019-05-29T07:09:01.836Z,11.70
2019-05-29T07:11:34.550Z,11.90
2019-05-29T07:14:05.510Z,11.90
2019-05-29T07:16:45.247Z,12.00
2019-05-29T07:19:25.245Z,12.00
2019-05-29T07:21:42.811Z,12.20
2019-05-29T07:24:13.858Z,12.40
2019-05-29T07:26:45.480Z,12.60
2019-05-29T07:29:16.806Z,12.70
2019-05-29T07:31:47.357Z,12.80
2019-05-29T07:34:18.122Z,13.00
2019-05-29T07:36:48.947Z,13.10
2019-05-29T07:39:19.810Z,13.30
2019-05-29T07:41:50.511Z,13.40
2019-05-29T07:44:21.501Z,13.50
2019-05-29T07:46:53.256Z,13.50
2019-05-29T07:49:38.081Z,13.40
2019-05-29T07:51:56.413Z,13.50
2019-05-29T07:54:27.066Z,13.50
2019-05-29T07:56:57.875Z,13.60
2019-05-29T07:59:31.750Z,13.70
2019-05-29T08:02:02.901Z,13.90
2019-05-29T08:04:33.736Z,14.10
2019-05-29T08:07:05.152Z,14.40
2019-05-29T08:09:35.991Z,14.50
2019-05-29T08:12:06.593Z,14.80
2019-05-29T08:14:37.387Z,14.90
2019-05-29T08:17:07.959Z,15.10
2019-05-29T08:19:53.504Z,15.10
2019-05-29T08:22:11.382Z,15.20
2019-05-29T08:24:42.616Z,15.20
2019-05-29T08:27:13.713Z,15.20
2019-05-29T08:29:44.736Z,15.20
2019-05-29T08:32:15.686Z,15.00
2019-05-29T08:34:47.076Z,14.90
2019-05-29T08:37:17.778Z,15.00
2019-05-29T08:39:49.537Z,15.10
2019-05-29T08:42:23.556Z,15.10
2019-05-29T08:44:53.857Z,14.90
2019-05-29T08:47:24.677Z,14.80
2019-05-29T08:49:59.759Z,15.00
2019-05-29T08:52:27.876Z,15.00
2019-05-29T08:54:58.544Z,15.10
2019-05-29T08:57:29.246Z,15.50
2019-05-29T09:00:00.214Z,15.60
2019-05-29T09:02:31.070Z,15.70
2019-05-29T09:05:01.917Z,15.90
2019-05-29T09:07:33.281Z,16.10
2019-05-29T09:10:04.623Z,16.30
2019-05-29T09:12:36.205Z,16.50
2019-05-29T09:15:08.269Z,16.70
2019-05-29T09:17:39.621Z,16.80
2019-05-29T09:20:26.152Z,16.80
2019-05-29T09:22:43.160Z,16.90
2019-05-29T09:25:15.325Z,17.00
2019-05-29T09:27:46.118Z,16.90
2019-05-29T09:30:19.678Z,16.70
2019-05-29T09:32:52.734Z,17.00
2019-05-29T09:35:24.604Z,17.20
2019-05-29T09:37:55.168Z,17.40
2019-05-29T09:40:26.089Z,17.60
2019-05-29T09:42:57.262Z,17.80
2019-05-29T09:45:28.092Z,17.90
2019-05-29T09:47:58.800Z,18.00
2019-05-29T09:50:48.965Z,18.10
2019-05-29T09:53:02.692Z,18.10
2019-05-29T09:55:34.501Z,18.00
2019-05-29T09:58:05.222Z,17.70
2019-05-29T10:00:35.887Z,17.50
2019-05-29T10:03:06.982Z,17.40
2019-05-29T10:05:37.649Z,17.50
2019-05-29T10:08:08.692Z,17.60
2019-05-29T10:10:39.309Z,17.90
2019-05-29T10:13:10.033Z,18.00
2019-05-29T10:15:40.771Z,17.90
2019-05-29T10:18:30.680Z,18.00
2019-05-29T10:20:44.237Z,18.00
2019-05-29T10:23:15.003Z,17.90
2019-05-29T10:25:45.588Z,17.90
2019-05-29T10:28:16.076Z,17.70
2019-05-29T10:30:48.302Z,17.90
2019-05-29T10:33:19.186Z,18.30
2019-05-29T10:35:52.993Z,18.20
2019-05-29T10:38:21.935Z,18.10
2019-05-29T10:41:05.292Z,17.90
2019-05-29T10:43:34.270Z,18.00
2019-05-29T10:45:57.856Z,18.10
2019-05-29T10:48:28.309Z,18.30
2019-05-29T10:50:59.068Z,18.50
2019-05-29T10:53:29.890Z,18.70
2019-05-29T10:56:00.618Z,19.10
2019-05-29T10:58:48.083Z,19.50
2019-05-29T11:01:04.772Z,19.60
2019-05-29T11:03:35.479Z,19.40
2019-05-29T11:06:06.273Z,19.00
2019-05-29T11:08:37.089Z,18.60
2019-05-29T11:11:07.802Z,18.80
2019-05-29T11:13:38.507Z,19.00
2019-05-29T11:16:09.319Z,19.30
2019-05-29T11:18:40.268Z,19.40
2019-05-29T11:21:11.264Z,19.10
2019-05-29T11:23:42.086Z,18.80
2019-05-29T11:26:12.905Z,18.90
2019-05-29T11:28:43.779Z,19.20
2019-05-29T11:31:16.254Z,19.40
2019-05-29T11:33:48.700Z,19.80
2019-05-29T11:36:19.957Z,20.10
2019-05-29T11:38:50.794Z,20.20
2019-05-29T11:41:26.452Z,19.60
2019-05-29T11:43:54.848Z,19.30
2019-05-29T11:46:25.588Z,19.00
2019-05-29T11:48:57.327Z,18.70
2019-05-29T11:51:28.126Z,18.70
2019-05-29T11:53:59.576Z,18.70
2019-05-29T11:56:30.442Z,18.70
2019-05-29T11:59:01.204Z,18.70
2019-05-29T12:01:49.107Z,18.60
2019-05-29T12:04:23.052Z,18.40
2019-05-29T12:06:37.689Z,18.00
2019-05-29T12:09:10.681Z,17.70
2019-05-29T12:11:41.541Z,17.50
2019-05-29T12:14:12.359Z,17.30
2019-05-29T12:16:44.187Z,17.20
2019-05-29T12:19:14.933Z,16.90
2019-05-29T12:21:48.991Z,16.80
2019-05-29T12:24:19.604Z,16.70
2019-05-29T12:26:50.517Z,16.70
2019-05-29T12:29:21.419Z,16.90
2019-05-29T12:31:52.933Z,17.00
2019-05-29T12:34:23.677Z,17.10
2019-05-29T12:36:55.347Z,17.30
2019-05-29T12:39:26.258Z,17.40
2019-05-29T12:41:57.550Z,17.30
2019-05-29T12:44:28.427Z,17.40
2019-05-29T12:47:01.813Z,17.40
2019-05-29T12:49:32.534Z,17.30
2019-05-29T12:52:07.190Z,17.40
2019-05-29T12:54:35.898Z,17.40
2019-05-29T12:57:07.084Z,17.40
2019-05-29T12:59:43.377Z,17.30
2019-05-29T13:02:14.556Z,17.20
2019-05-29T13:05:06.879Z,17.00
2019-05-29T13:07:17.704Z,17.10
2019-05-29T13:09:48.601Z,17.00
2019-05-29T13:12:19.597Z,17.10
2019-05-29T13:14:50.339Z,17.10
2019-05-29T13:17:21.182Z,17.10
2019-05-29T13:19:52.011Z,17.00
2019-05-29T13:22:22.833Z,17.10
2019-05-29T13:24:55.117Z,17.10
2019-05-29T13:27:25.926Z,17.10
2019-05-29T13:29:59.885Z,17.10
2019-05-29T13:32:29.273Z,17.10
2019-05-29T13:35:00.434Z,17.20
2019-05-29T13:37:31.619Z,17.20
2019-05-29T13:40:05.532Z,17.20
2019-05-29T13:42:34.998Z,17.10
2019-05-29T13:45:16.767Z,17.10
2019-05-29T13:47:39.106Z,17.10
2019-05-29T13:50:12.249Z,17.20
2019-05-29T13:52:42.424Z,17.10
2019-05-29T13:55:13.506Z,17.10
2019-05-29T13:57:44.133Z,17.00
2019-05-29T14:00:32.561Z,17.00
2019-05-29T14:02:48.907Z,17.00
2019-05-29T14:05:19.975Z,16.80
2019-05-29T14:07:52.398Z,16.60
2019-05-29T14:10:23.314Z,16.50
2019-05-29T14:12:54.266Z,16.40
2019-05-29T14:15:25.170Z,16.40
2019-05-29T14:17:55.762Z,16.30
2019-05-29T14:20:26.490Z,16.30
2019-05-29T14:22:57.138Z,16.20
2019-05-29T14:25:28.122Z,16.30
2019-05-29T14:28:00.663Z,16.30
2019-05-29T14:30:31.851Z,16.30
2019-05-29T14:33:04.260Z,16.30
2019-05-29T14:35:35.178Z,16.30
2019-05-29T14:38:10.766Z,16.40
2019-05-29T14:40:38.225Z,16.40
2019-05-29T14:43:12.835Z,16.40
2019-05-29T14:45:40.980Z,16.20
2019-05-29T14:48:13.100Z,16.20
2019-05-29T14:50:44.001Z,16.00
2019-05-29T14:53:14.576Z,15.90
2019-05-29T14:55:45.258Z,15.80
2019-05-29T14:58:16.137Z,15.80
2019-05-29T15:00:46.917Z,15.80
2019-05-29T15:03:17.762Z,15.90
2019-05-29T15:05:48.726Z,16.00
2019-05-29T15:08:19.229Z,16.00
2019-05-29T15:10:50.062Z,16.00
2019-05-29T15:13:20.879Z,15.90
2019-05-29T15:15:51.639Z,15.90
2019-05-29T15:18:22.497Z,15.80
2019-05-29T15:20:53.297Z,15.80
2019-05-29T15:23:25.421Z,15.80
2019-05-29T15:25:56.053Z,15.70
2019-05-29T15:28:26.907Z,15.50
2019-05-29T15:30:58.804Z,15.50
2019-05-29T15:33:30.005Z,15.40
2019-05-29T15:36:00.602Z,15.40
2019-05-29T15:38:31.505Z,15.20
2019-05-29T15:41:02.528Z,15.10
2019-05-29T15:43:33.435Z,15.10
2019-05-29T15:46:04.347Z,15.00
2019-05-29T15:48:35.305Z,15.00
2019-05-29T15:51:06.879Z,14.90
2019-05-29T15:53:37.914Z,14.90
2019-05-29T15:56:23.713Z,14.90
2019-05-29T15:58:41.095Z,14.90
2019-05-29T16:01:11.764Z,15.00
2019-05-29T16:03:42.766Z,15.00
2019-05-29T16:06:13.881Z,15.00
2019-05-29T16:08:44.847Z,15.10
2019-05-29T16:11:16.683Z,15.10
2019-05-29T16:13:47.609Z,15.20
2019-05-29T16:16:19.305Z,15.20
2019-05-29T16:18:50.037Z,15.20
2019-05-29T16:21:20.931Z,15.20
2019-05-29T16:23:51.793Z,15.20
2019-05-29T16:26:22.756Z,15.20
2019-05-29T16:28:53.381Z,15.20
2019-05-29T16:31:24.105Z,15.20
2019-05-29T16:33:54.992Z,15.20
2019-05-29T16:36:25.598Z,15.30
2019-05-29T16:38:56.502Z,15.30
2019-05-29T16:41:27.277Z,15.20
2019-05-29T16:43:58.101Z,15.20
2019-05-29T16:46:28.978Z,15.30
2019-05-29T16:48:59.621Z,15.40
2019-05-29T16:51:30.489Z,15.40
2019-05-29T16:54:01.447Z,15.40
2019-05-29T16:56:32.274Z,15.50
2019-05-29T16:59:03.052Z,15.50
2019-05-29T17:01:33.874Z,15.50
2019-05-29T17:04:04.494Z,15.50
2019-05-29T17:06:35.534Z,15.50
2019-05-29T17:09:09.173Z,15.40
2019-05-29T17:11:39.976Z,15.40
2019-05-29T17:14:10.848Z,15.30
2019-05-29T17:16:41.646Z,15.20
2019-05-29T17:19:12.375Z,15.10
2019-05-29T17:21:42.882Z,15.00
2019-05-29T17:24:14.676Z,15.00
2019-05-29T17:26:45.389Z,14.90
2019-05-29T17:29:16.951Z,14.90
2019-05-29T17:31:47.637Z,14.90
2019-05-29T17:34:19.028Z,14.90
2019-05-29T17:36:49.666Z,14.90
2019-05-29T17:39:21.451Z,14.90
2019-05-29T17:41:52.161Z,14.90
2019-05-29T17:44:23.549Z,14.90
2019-05-29T17:46:54.463Z,14.80
2019-05-29T17:49:32.790Z,14.80
2019-05-29T17:51:58.914Z,14.80
2019-05-29T17:54:29.791Z,14.80
2019-05-29T17:57:00.779Z,14.70
2019-05-29T17:59:31.737Z,14.70
2019-05-29T18:02:03.470Z,14.70
2019-05-29T18:04:34.629Z,14.60
2019-05-29T18:07:05.461Z,14.60
2019-05-29T18:09:36.341Z,14.60
2019-05-29T18:12:07.222Z,14.60
2019-05-29T18:14:39.894Z,14.50
2019-05-29T18:17:11.098Z,14.50
2019-05-29T18:19:42.356Z,14.50
2019-05-29T18:22:13.047Z,14.40
2019-05-29T18:24:44.122Z,14.40
2019-05-29T18:27:15.013Z,14.40
2019-05-29T18:29:45.799Z,14.40
2019-05-29T18:32:16.465Z,14.30
2019-05-29T18:34:51.347Z,14.30
2019-05-29T18:37:20.425Z,14.20
2019-05-29T18:39:51.310Z,14.20
2019-05-29T18:42:22.520Z,14.20
2019-05-29T18:44:53.571Z,14.20
2019-05-29T18:47:25.135Z,14.10
2019-05-29T18:49:56.150Z,14.10
2019-05-29T18:52:27.698Z,14.00
2019-05-29T18:54:58.465Z,14.00
2019-05-29T18:57:29.673Z,13.90
2019-05-29T19:00:00.851Z,13.90
2019-05-29T19:02:31.906Z,13.80
2019-05-29T19:05:02.572Z,13.80
2019-05-29T19:07:33.257Z,13.70
2019-05-29T19:10:06.807Z,13.70
2019-05-29T19:12:37.985Z,13.60
2019-05-29T19:15:09.626Z,13.60
2019-05-29T19:17:41.210Z,13.50
2019-05-29T19:20:12.316Z,13.50
2019-05-29T19:22:42.965Z,13.40
2019-05-29T19:25:13.835Z,13.40
2019-05-29T19:27:44.610Z,13.30
2019-05-29T19:30:15.761Z,13.30
2019-05-29T19:32:46.865Z,13.20
2019-05-29T19:35:19.041Z,13.10
2019-05-29T19:37:50.186Z,13.10
2019-05-29T19:40:21.341Z,13.10
2019-05-29T19:42:54.601Z,13.00
2019-05-29T19:45:24.800Z,13.00
2019-05-29T19:47:55.574Z,12.90
2019-05-29T19:50:26.671Z,12.90
2019-05-29T19:52:57.521Z,12.80
2019-05-29T19:55:32.874Z,12.80
2019-05-29T19:58:01.360Z,12.70
2019-05-29T20:00:32.218Z,12.70
2019-05-29T20:03:03.166Z,12.60
2019-05-29T20:05:34.938Z,12.60
2019-05-29T20:08:06.672Z,12.50
2019-05-29T20:10:37.646Z,12.50
2019-05-29T20:13:08.528Z,12.40
2019-05-29T20:15:39.294Z,12.40
2019-05-29T20:18:10.185Z,12.30
2019-05-29T20:20:41.291Z,12.30
2019-05-29T20:23:12.057Z,12.30
2019-05-29T20:25:43.241Z,12.20
2019-05-29T20:28:14.175Z,12.10
2019-05-29T20:30:45.523Z,12.10
2019-05-29T20:33:16.602Z,12.10
2019-05-29T20:35:47.317Z,12.00
2019-05-29T20:38:17.958Z,12.00
2019-05-29T20:40:49.056Z,11.90
2019-05-29T20:43:20.111Z,11.80
2019-05-29T20:45:51.254Z,11.80
2019-05-29T20:48:22.182Z,11.80
2019-05-29T20:50:52.933Z,11.70
2019-05-29T20:53:23.759Z,11.70
2019-05-29T20:55:54.641Z,11.60
2019-05-29T20:58:25.318Z,11.60
2019-05-29T21:00:55.769Z,11.60
2019-05-29T21:03:26.523Z,11.50
2019-05-29T21:05:57.336Z,11.50
2019-05-29T21:08:28.169Z,11.50
2019-05-29T21:10:59.060Z,11.40
2019-05-29T21:13:29.829Z,11.40
2019-05-29T21:16:00.682Z,11.30
2019-05-29T21:18:31.294Z,11.40
2019-05-29T21:21:02.049Z,11.30
2019-05-29T21:23:32.663Z,11.30
2019-05-29T21:26:03.452Z,11.30
2019-05-29T21:28:40.862Z,11.20
2019-05-29T21:31:07.318Z,11.10
2019-05-29T21:33:41.899Z,11.10
2019-05-29T21:36:10.226Z,11.10
2019-05-29T21:38:40.810Z,11.10
2019-05-29T21:41:11.850Z,11.00
2019-05-29T21:43:43.124Z,11.00
2019-05-29T21:46:13.800Z,11.00
2019-05-29T21:48:45.208Z,10.90
2019-05-29T21:51:15.865Z,10.90
2019-05-29T21:53:47.592Z,10.90
2019-05-29T21:56:18.492Z,10.90
2019-05-29T21:59:02.889Z,10.90
2019-05-29T22:01:21.784Z,10.90
2019-05-29T22:03:52.545Z,10.80
2019-05-29T22:06:23.469Z,10.80
2019-05-29T22:08:55.090Z,10.70
2019-05-29T22:11:25.895Z,10.70
2019-05-29T22:13:56.710Z,10.60
2019-05-29T22:16:27.710Z,10.60
2019-05-29T22:19:02.561Z,10.60
2019-05-29T22:21:31.147Z,10.60
2019-05-29T22:24:01.721Z,10.60
2019-05-29T22:26:32.185Z,10.50
2019-05-29T22:29:17.053Z,10.50
2019-05-29T22:31:35.623Z,10.40
2019-05-29T22:34:06.519Z,10.40
2019-05-29T22:36:37.305Z,10.40
2019-05-29T22:39:08.264Z,10.40
2019-05-29T22:41:38.994Z,10.40
2019-05-29T22:44:09.842Z,10.30
2019-05-29T22:46:40.598Z,10.30
2019-05-29T22:49:11.289Z,10.30
2019-05-29T22:51:42.122Z,10.30
2019-05-29T22:54:12.927Z,10.30
2019-05-29T22:56:43.485Z,10.20
2019-05-29T22:59:14.257Z,10.20
2019-05-29T23:01:44.834Z,10.20
2019-05-29T23:04:15.609Z,10.10
